createdAt,value
2023-03-11T00:02:15.688Z,1.60
2023-03-11T00:04:42.641Z,1.60
2023-03-11T00:07:09.856Z,1.60
2023-03-11T00:09:36.490Z,1.70
2023-03-11T00:12:03.451Z,1.60
2023-03-11T00:14:30.105Z,1.60
2023-03-11T00:16:56.780Z,1.60
2023-03-11T00:19:23.412Z,1.60
2023-03-11T00:21:50.048Z,1.50
2023-03-11T00:24:16.654Z,1.50
2023-03-11T00:26:43.275Z,1.50
2023-03-11T00:29:10.143Z,1.50
2023-03-11T00:31:36.759Z,1.50
2023-03-11T00:34:03.373Z,1.50
2023-03-11T00:36:31.692Z,1.50
2023-03-11T00:38:59.108Z,1.50
2023-03-11T00:41:25.939Z,1.50
2023-03-11T00:43:52.559Z,1.50
2023-03-11T00:46:19.254Z,1.50
2023-03-11T00:48:45.866Z,1.50
2023-03-11T00:51:14.967Z,1.50
2023-03-11T00:53:41.975Z,1.60
2023-03-11T00:56:12.690Z,1.60
2023-03-11T00:58:39.598Z,1.50
2023-03-11T01:01:14.449Z,1.50
2023-03-11T01:03:41.107Z,1.50
2023-03-11T01:06:07.747Z,1.50
2023-03-11T01:08:34.629Z,1.50
2023-03-11T01:11:01.257Z,1.50
2023-03-11T01:13:28.551Z,1.40
2023-03-11T01:15:55.425Z,1.50
2023-03-11T01:18:22.094Z,1.50
2023-03-11T01:20:49.215Z,1.40
2023-03-11T01:23:16.290Z,1.40
2023-03-11T01:25:42.911Z,1.30
2023-03-11T01:28:09.821Z,1.30
2023-03-11T01:30:37.799Z,1.30
2023-03-11T01:33:04.698Z,1.30
2023-03-11T01:35:31.719Z,1.30
2023-03-11T01:37:58.714Z,1.30
2023-03-11T01:40:34.094Z,1.30
2023-03-11T01:43:00.823Z,1.30
2023-03-11T01:45:36.837Z,1.30
2023-03-11T01:48:03.796Z,1.20
2023-03-11T01:50:34.991Z,1.20
2023-03-11T01:53:02.136Z,1.20
2023-03-11T01:55:28.884Z,1.30
2023-03-11T01:57:55.619Z,1.20
2023-03-11T02:00:22.231Z,1.30
2023-03-11T02:02:54.140Z,1.20
2023-03-11T02:05:21.636Z,1.30
2023-03-11T02:07:48.716Z,1.20
2023-03-11T02:10:15.398Z,1.20
2023-03-11T02:12:42.287Z,1.20
2023-03-11T02:15:09.267Z,1.20
2023-03-11T02:17:36.486Z,1.20
2023-03-11T02:20:06.291Z,1.20
2023-03-11T02:22:36.018Z,1.20
2023-03-11T02:25:25.499Z,1.20
2023-03-11T02:27:52.650Z,1.20
2023-03-11T02:30:20.606Z,1.20
2023-03-11T02:32:48.522Z,1.10
2023-03-11T02:35:15.507Z,1.20
2023-03-11T02:37:49.563Z,1.20
2023-03-11T02:40:36.377Z,1.20
2023-03-11T02:43:08.264Z,1.10
2023-03-11T02:45:34.925Z,1.10
2023-03-11T02:48:01.579Z,1.10
2023-03-11T02:50:29.012Z,1.10
2023-03-11T02:52:55.838Z,1.10
2023-03-11T02:55:22.442Z,1.10
2023-03-11T02:57:49.133Z,1.10
2023-03-11T03:00:16.682Z,1.10
2023-03-11T03:02:44.194Z,1.10
2023-03-11T03:05:11.225Z,1.10
2023-03-11T03:07:38.128Z,1.10
2023-03-11T03:10:05.786Z,1.10
2023-03-11T03:12:32.410Z,1.20
2023-03-11T03:14:59.258Z,1.10
2023-03-11T03:17:26.098Z,1.20
2023-03-11T03:19:52.721Z,1.10
2023-03-11T03:22:19.377Z,1.20
2023-03-11T03:24:46.287Z,1.20
2023-03-11T03:27:13.164Z,1.20
2023-03-11T03:29:40.018Z,1.20
2023-03-11T03:32:07.143Z,1.20
2023-03-11T03:34:33.919Z,1.20
2023-03-11T03:37:00.538Z,1.20
2023-03-11T03:39:29.397Z,1.20
2023-03-11T03:41:57.146Z,1.10
2023-03-11T03:44:24.025Z,1.00
2023-03-11T03:46:50.899Z,1.00
2023-03-11T03:49:17.527Z,1.00
2023-03-11T03:51:44.398Z,1.00
2023-03-11T03:54:10.989Z,1.00
2023-03-11T03:56:37.859Z,1.00
2023-03-11T03:59:04.467Z,1.00
2023-03-11T04:01:31.216Z,1.10
2023-03-11T04:03:57.816Z,1.10
2023-03-11T04:06:25.824Z,1.10
2023-03-11T04:08:53.061Z,1.20
2023-03-11T04:11:20.085Z,1.20
2023-03-11T04:13:46.807Z,1.10
2023-03-11T04:16:19.007Z,1.10
2023-03-11T04:18:45.741Z,1.00
2023-03-11T04:21:12.412Z,1.10
2023-03-11T04:23:39.028Z,1.00
2023-03-11T04:26:05.922Z,1.00
2023-03-11T04:28:32.910Z,1.00
2023-03-11T04:30:59.549Z,1.00
2023-03-11T04:33:26.203Z,1.00
2023-03-11T04:35:52.880Z,1.10
2023-03-11T04:38:19.784Z,1.00
2023-03-11T04:40:46.394Z,1.00
2023-03-11T04:43:13.270Z,1.00
2023-03-11T04:45:40.154Z,1.10
2023-03-11T04:48:06.870Z,1.10
2023-03-11T04:50:33.468Z,1.10
2023-03-11T04:53:00.129Z,1.10
2023-03-11T04:55:26.766Z,1.10
2023-03-11T04:57:53.369Z,1.10
2023-03-11T05:00:24.622Z,1.10
2023-03-11T05:02:51.270Z,1.10
2023-03-11T05:05:19.546Z,1.00
2023-03-11T05:07:46.160Z,1.00
2023-03-11T05:10:12.941Z,1.00
2023-03-11T05:12:45.678Z,1.00
2023-03-11T05:15:12.256Z,1.00
2023-03-11T05:17:38.856Z,1.00
2023-03-11T05:20:08.902Z,1.00
2023-03-11T05:22:35.598Z,1.00
2023-03-11T05:25:02.246Z,1.00
2023-03-11T05:27:28.860Z,1.00
2023-03-11T05:29:55.459Z,0.90
2023-03-11T05:32:22.201Z,0.90
2023-03-11T05:34:48.948Z,1.00
2023-03-11T05:37:15.622Z,1.00
2023-03-11T05:39:42.252Z,1.00
2023-03-11T05:42:08.916Z,1.00
2023-03-11T05:44:35.557Z,1.00
2023-03-11T05:47:03.259Z,1.00
2023-03-11T05:49:30.124Z,1.00
2023-03-11T05:51:58.804Z,1.00
2023-03-11T05:54:25.652Z,1.00
2023-03-11T05:56:52.290Z,1.00
2023-03-11T05:59:18.948Z,0.90
2023-03-11T06:01:45.608Z,1.00
2023-03-11T06:04:12.462Z,1.00
2023-03-11T06:06:41.493Z,1.00
2023-03-11T06:09:13.655Z,1.00
2023-03-11T06:11:40.258Z,1.00
2023-03-11T06:14:07.156Z,1.10
2023-03-11T06:16:34.035Z,1.00
2023-03-11T06:19:00.925Z,1.00
2023-03-11T06:21:27.878Z,1.10
2023-03-11T06:23:54.495Z,1.00
2023-03-11T06:26:21.456Z,1.00
2023-03-11T06:28:48.353Z,1.00
2023-03-11T06:31:16.899Z,1.10
2023-03-11T06:33:43.822Z,1.10
2023-03-11T06:36:11.144Z,1.20
2023-03-11T06:38:37.804Z,1.20
2023-03-11T06:41:05.173Z,1.20
2023-03-11T06:43:31.896Z,1.20
2023-03-11T06:45:58.774Z,1.20
2023-03-11T06:48:25.719Z,1.30
2023-03-11T06:50:59.266Z,1.30
2023-03-11T06:53:26.797Z,1.40
2023-03-11T06:56:08.519Z,1.50
2023-03-11T06:58:39.044Z,1.60
2023-03-11T07:01:20.019Z,1.70
2023-03-11T07:03:47.347Z,1.80
2023-03-11T07:06:15.079Z,1.90
2023-03-11T07:08:41.741Z,2.00
2023-03-11T07:11:14.746Z,2.10
2023-03-11T07:13:41.437Z,2.20
2023-03-11T07:16:27.446Z,2.40
2023-03-11T07:18:55.839Z,3.30
2023-03-11T07:21:23.091Z,4.80
2023-03-11T07:23:56.938Z,6.10
2023-03-11T07:26:23.686Z,7.10
2023-03-11T07:28:50.501Z,8.30
2023-03-11T07:31:23.284Z,8.10
2023-03-11T07:33:49.974Z,7.60
2023-03-11T07:36:18.653Z,7.10
2023-03-11T07:38:45.694Z,6.50
2023-03-11T07:41:12.755Z,6.10
2023-03-11T07:43:40.132Z,5.70
2023-03-11T07:46:11.408Z,5.40
2023-03-11T07:48:38.950Z,5.10
2023-03-11T07:51:07.872Z,5.00
2023-03-11T07:53:34.757Z,4.90
2023-03-11T07:56:01.712Z,4.70
2023-03-11T07:58:29.505Z,4.40
2023-03-11T08:00:57.105Z,4.20
2023-03-11T08:03:24.832Z,4.20
2023-03-11T08:05:51.948Z,4.20
2023-03-11T08:08:18.817Z,4.30
2023-03-11T08:10:45.418Z,4.40
2023-03-11T08:13:12.034Z,4.60
2023-03-11T08:15:38.869Z,4.60
2023-03-11T08:18:05.515Z,4.50
2023-03-11T08:20:32.453Z,4.40
2023-03-11T08:22:59.341Z,4.30
2023-03-11T08:25:26.055Z,4.20
2023-03-11T08:27:52.939Z,4.30
2023-03-11T08:30:19.671Z,4.20
2023-03-11T08:32:46.620Z,4.10
2023-03-11T08:35:13.254Z,3.90
2023-03-11T08:37:40.322Z,3.70
2023-03-11T08:40:08.085Z,3.60
2023-03-11T08:42:36.838Z,3.60
2023-03-11T08:45:04.064Z,3.50
2023-03-11T08:47:34.966Z,3.50
2023-03-11T08:50:01.738Z,3.50
2023-03-11T08:52:28.329Z,3.40
2023-03-11T08:54:54.938Z,3.40
2023-03-11T08:57:21.542Z,3.50
2023-03-11T08:59:48.216Z,3.70
2023-03-11T09:02:14.888Z,3.80
2023-03-11T09:04:41.521Z,3.60
2023-03-11T09:07:08.483Z,3.60
2023-03-11T09:09:35.142Z,3.70
2023-03-11T09:12:01.764Z,3.70
2023-03-11T09:14:28.384Z,3.70
2023-03-11T09:16:54.979Z,3.60
2023-03-11T09:19:21.632Z,3.70
2023-03-11T09:21:48.229Z,3.80
2023-03-11T09:24:14.856Z,3.80
2023-03-11T09:26:41.455Z,4.00
2023-03-11T09:29:08.112Z,4.20
2023-03-11T09:31:34.812Z,4.40
2023-03-11T09:34:01.477Z,4.40
2023-03-11T09:36:28.148Z,4.40
2023-03-11T09:38:54.950Z,4.50
2023-03-11T09:41:55.261Z,4.40
2023-03-11T09:44:34.257Z,4.40
2023-03-11T09:47:19.770Z,4.40
2023-03-11T09:50:16.526Z,4.40
2023-03-11T09:52:55.632Z,4.60
2023-03-11T09:55:57.724Z,4.80
2023-03-11T09:58:36.593Z,4.70
2023-03-11T10:01:06.703Z,4.70
2023-03-11T10:03:34.899Z,4.60
2023-03-11T10:06:08.031Z,4.70
2023-03-11T10:08:40.626Z,4.80
2023-03-11T10:11:16.099Z,4.80
2023-03-11T10:13:51.649Z,4.60
2023-03-11T10:16:36.986Z,4.50
2023-03-11T10:19:11.581Z,4.30
2023-03-11T10:22:11.359Z,4.40
2023-03-11T10:24:50.000Z,4.60
2023-03-11T10:27:19.798Z,4.90
2023-03-11T10:30:06.604Z,5.10
2023-03-11T10:33:08.609Z,5.10
2023-03-11T10:35:39.728Z,5.20
2023-03-11T10:38:18.304Z,5.10
2023-03-11T10:40:46.154Z,5.30
2023-03-11T10:43:27.194Z,5.40
2023-03-11T10:45:53.845Z,5.70
2023-03-11T10:48:21.216Z,5.80
2023-03-11T10:51:12.535Z,5.50
2023-03-11T10:53:48.093Z,5.30
2023-03-11T10:56:35.125Z,5.30
2023-03-11T10:59:02.148Z,5.50
2023-03-11T11:01:29.117Z,5.50
2023-03-11T11:03:58.507Z,5.30
2023-03-11T11:06:26.464Z,5.30
2023-03-11T11:09:06.732Z,5.40
2023-03-11T11:11:35.616Z,5.60
2023-03-11T11:14:02.307Z,5.70
2023-03-11T11:16:29.017Z,5.70
2023-03-11T11:19:27.291Z,5.50
2023-03-11T11:21:53.885Z,5.40
2023-03-11T11:24:29.904Z,5.50
2023-03-11T11:27:04.352Z,5.90
2023-03-11T11:29:30.974Z,6.20
2023-03-11T11:32:21.872Z,6.00
2023-03-11T11:35:00.010Z,5.90
2023-03-11T11:37:31.687Z,5.80
2023-03-11T11:40:14.517Z,5.60
2023-03-11T11:42:45.759Z,5.60
2023-03-11T11:45:32.411Z,5.60
2023-03-11T11:48:00.497Z,5.50
2023-03-11T11:50:35.346Z,5.50
2023-03-11T11:53:32.873Z,5.60
2023-03-11T11:55:59.500Z,5.70
2023-03-11T11:58:26.135Z,6.00
2023-03-11T12:01:21.804Z,6.30
2023-03-11T12:04:25.828Z,6.20
2023-03-11T12:07:21.126Z,6.20
2023-03-11T12:10:22.157Z,6.20
2023-03-11T12:13:15.265Z,6.10
2023-03-11T12:15:59.393Z,6.10
2023-03-11T12:18:44.831Z,6.10
2023-03-11T12:21:27.228Z,6.10
2023-03-11T12:24:16.029Z,6.20
2023-03-11T12:26:43.004Z,6.60
2023-03-11T12:29:26.336Z,7.10
2023-03-11T12:31:53.282Z,7.40
2023-03-11T12:34:20.479Z,7.30
2023-03-11T12:36:47.267Z,7.10
2023-03-11T12:39:30.722Z,7.30
2023-03-11T12:42:38.712Z,7.40
2023-03-11T12:45:47.018Z,7.00
2023-03-11T12:48:44.210Z,6.60
2023-03-11T12:51:29.531Z,6.80
2023-03-11T12:53:56.358Z,6.70
2023-03-11T12:56:43.668Z,6.70
2023-03-11T12:59:34.259Z,7.00
2023-03-11T13:02:09.585Z,7.30
2023-03-11T13:04:59.155Z,7.30
2023-03-11T13:07:36.188Z,7.30
2023-03-11T13:10:38.864Z,7.40
2023-03-11T13:13:32.439Z,7.30
2023-03-11T13:16:39.858Z,7.20
2023-03-11T13:19:34.829Z,7.20
2023-03-11T13:22:02.060Z,6.90
2023-03-11T13:24:31.617Z,6.70
2023-03-11T13:27:06.938Z,6.40
2023-03-11T13:29:53.570Z,6.20
2023-03-11T13:32:23.243Z,6.00
2023-03-11T13:35:09.241Z,5.90
2023-03-11T13:37:50.814Z,5.70
2023-03-11T13:40:32.425Z,5.60
2023-03-11T13:43:26.058Z,5.80
2023-03-11T13:45:59.830Z,5.80
2023-03-11T13:48:46.389Z,6.00
2023-03-11T13:51:32.762Z,6.20
2023-03-11T13:54:04.665Z,6.30
2023-03-11T13:56:37.678Z,6.40
2023-03-11T13:59:18.397Z,6.60
2023-03-11T14:01:55.025Z,6.70
2023-03-11T14:04:35.981Z,6.60
2023-03-11T14:07:27.436Z,6.50
2023-03-11T14:10:30.131Z,6.60
2023-03-11T14:13:16.742Z,6.40
2023-03-11T14:16:06.819Z,6.40
2023-03-11T14:18:41.318Z,6.60
2023-03-11T14:21:31.673Z,6.50
2023-03-11T14:23:58.290Z,6.40
2023-03-11T14:26:34.886Z,6.60
2023-03-11T14:29:07.121Z,6.70
2023-03-11T14:31:41.523Z,7.00
2023-03-11T14:34:11.220Z,7.20
2023-03-11T14:36:44.851Z,7.30
2023-03-11T14:39:36.437Z,7.40
2023-03-11T14:42:22.918Z,7.50
2023-03-11T14:45:12.011Z,7.70
2023-03-11T14:47:43.926Z,7.70
2023-03-11T14:50:21.677Z,7.70
2023-03-11T14:53:24.214Z,7.60
2023-03-11T14:56:07.200Z,7.60
2023-03-11T14:59:07.567Z,7.50
2023-03-11T15:01:40.546Z,7.10
2023-03-11T15:04:26.770Z,6.60
2023-03-11T15:06:53.393Z,6.20
2023-03-11T15:09:20.851Z,5.90
2023-03-11T15:11:59.106Z,5.80
2023-03-11T15:14:27.660Z,5.80
2023-03-11T15:16:55.616Z,5.80
2023-03-11T15:19:28.084Z,5.50
2023-03-11T15:21:58.466Z,5.40
2023-03-11T15:24:27.864Z,5.40
2023-03-11T15:26:58.282Z,5.30
2023-03-11T15:29:25.178Z,5.30
2023-03-11T15:31:51.840Z,5.20
2023-03-11T15:34:18.363Z,5.20
2023-03-11T15:36:47.969Z,5.20
2023-03-11T15:39:19.584Z,5.20
2023-03-11T15:42:00.379Z,5.10
2023-03-11T15:44:30.840Z,5.00
2023-03-11T15:46:59.644Z,4.90
2023-03-11T15:49:26.888Z,4.80
2023-03-11T15:51:53.542Z,4.80
2023-03-11T15:54:20.138Z,4.80
2023-03-11T15:56:46.750Z,4.80
2023-03-11T15:59:15.160Z,4.90
2023-03-11T16:01:42.093Z,4.90
2023-03-11T16:04:18.888Z,5.00
2023-03-11T16:06:49.518Z,5.00
2023-03-11T16:09:20.912Z,4.90
2023-03-11T16:11:47.621Z,4.80
2023-03-11T16:14:18.438Z,4.90
2023-03-11T16:16:45.072Z,4.80
2023-03-11T16:19:11.918Z,4.70
2023-03-11T16:21:41.098Z,4.70
2023-03-11T16:24:07.909Z,4.50
2023-03-11T16:26:35.184Z,4.60
2023-03-11T16:29:16.640Z,4.50
2023-03-11T16:31:45.566Z,4.40
2023-03-11T16:34:12.223Z,4.30
2023-03-11T16:36:38.835Z,4.20
2023-03-11T16:39:05.744Z,4.10
2023-03-11T16:41:42.547Z,4.00
2023-03-11T16:44:10.007Z,3.90
2023-03-11T16:46:36.871Z,3.70
2023-03-11T16:49:03.853Z,3.60
2023-03-11T16:51:30.476Z,3.50
2023-03-11T16:53:57.096Z,3.40
2023-03-11T16:56:23.710Z,3.40
2023-03-11T16:58:50.310Z,3.30
2023-03-11T17:01:17.885Z,3.20
2023-03-11T17:03:47.714Z,3.00
2023-03-11T17:06:14.537Z,2.90
2023-03-11T17:08:41.145Z,2.80
2023-03-11T17:11:23.120Z,2.70
2023-03-11T17:13:54.224Z,2.60
2023-03-11T17:16:22.063Z,2.60
2023-03-11T17:18:48.672Z,2.50
2023-03-11T17:21:15.494Z,2.40
2023-03-11T17:23:42.138Z,2.30
2023-03-11T17:26:10.168Z,2.20
2023-03-11T17:28:36.938Z,2.10
2023-03-11T17:31:03.987Z,2.10
2023-03-11T17:33:30.611Z,2.00
2023-03-11T17:36:02.198Z,1.90
2023-03-11T17:38:29.437Z,1.80
2023-03-11T17:40:56.495Z,1.80
2023-03-11T17:43:23.251Z,1.70
2023-03-11T17:45:49.966Z,1.60
2023-03-11T17:48:16.602Z,1.60
2023-03-11T17:50:43.222Z,1.50
2023-03-11T17:53:09.907Z,1.50
2023-03-11T17:55:39.508Z,1.40
2023-03-11T17:58:06.187Z,1.30
2023-03-11T18:00:32.799Z,1.30
2023-03-11T18:02:59.419Z,1.40
2023-03-11T18:05:26.015Z,1.30
2023-03-11T18:07:52.639Z,1.30
2023-03-11T18:10:19.661Z,1.30
2023-03-11T18:12:46.579Z,1.30
2023-03-11T18:15:16.036Z,1.20
2023-03-11T18:17:42.661Z,1.10
2023-03-11T18:20:13.521Z,1.10
2023-03-11T18:22:44.470Z,1.10
2023-03-11T18:25:13.829Z,1.10
2023-03-11T18:27:40.494Z,1.10
2023-03-11T18:30:08.136Z,1.00
2023-03-11T18:32:35.062Z,0.90
2023-03-11T18:35:01.710Z,0.90
2023-03-11T18:37:28.322Z,0.90
2023-03-11T18:39:54.948Z,0.80
2023-03-11T18:42:21.643Z,0.80
2023-03-11T18:44:48.455Z,0.70
2023-03-11T18:47:15.095Z,0.70
2023-03-11T18:49:41.739Z,0.80
2023-03-11T18:52:09.044Z,0.70
2023-03-11T18:54:35.926Z,0.70
2023-03-11T18:57:02.636Z,0.70
2023-03-11T18:59:29.232Z,0.70
2023-03-11T19:01:55.875Z,0.70
2023-03-11T19:04:25.133Z,0.70
2023-03-11T19:06:51.868Z,0.70
2023-03-11T19:09:18.485Z,0.60
2023-03-11T19:11:45.646Z,0.60
2023-03-11T19:14:12.291Z,0.50
2023-03-11T19:16:39.116Z,0.60
2023-03-11T19:19:05.763Z,0.60
2023-03-11T19:21:32.419Z,0.50
2023-03-11T19:24:00.168Z,0.50
2023-03-11T19:26:43.134Z,0.50
2023-03-11T19:29:10.659Z,0.50
2023-03-11T19:31:37.441Z,0.40
2023-03-11T19:34:04.039Z,0.30
2023-03-11T19:36:30.961Z,0.20
2023-03-11T19:38:58.088Z,0.10
2023-03-11T19:41:27.441Z,0.10
2023-03-11T19:43:54.318Z,0.10
2023-03-11T19:46:21.423Z,0.10
2023-03-11T19:48:48.381Z,0.10
2023-03-11T19:51:17.084Z,0.10
2023-03-11T19:53:43.962Z,0.10
2023-03-11T19:56:10.655Z,0.20
2023-03-11T19:58:37.296Z,0.10
2023-03-11T20:01:04.101Z,0.10
2023-03-11T20:03:30.867Z,0.10
2023-03-11T20:06:02.423Z,0.00
2023-03-11T20:08:30.508Z,0.00
2023-03-11T20:11:00.690Z,-0.10
2023-03-11T20:13:27.435Z,-0.10
2023-03-11T20:15:54.381Z,-0.20
2023-03-11T20:18:21.368Z,-0.20
2023-03-11T20:20:47.960Z,-0.20
2023-03-11T20:23:14.752Z,-0.20
2023-03-11T20:25:41.860Z,-0.20
2023-03-11T20:28:09.417Z,-0.30
2023-03-11T20:30:37.496Z,-0.30
2023-03-11T20:33:04.205Z,-0.40
2023-03-11T20:35:30.908Z,-0.50
2023-03-11T20:37:58.922Z,-0.50
2023-03-11T20:40:25.544Z,-0.60
2023-03-11T20:42:52.186Z,-0.60
2023-03-11T20:45:21.708Z,-0.60
2023-03-11T20:47:49.483Z,-0.60
2023-03-11T20:50:16.285Z,-0.60
2023-03-11T20:52:42.945Z,-0.70
2023-03-11T20:55:10.229Z,-0.70
2023-03-11T20:57:37.820Z,-0.70
2023-03-11T21:00:09.041Z,-0.60
2023-03-11T21:02:35.803Z,-0.70
2023-03-11T21:05:03.198Z,-0.70
2023-03-11T21:07:29.873Z,-0.60
2023-03-11T21:09:58.114Z,-0.60
2023-03-11T21:12:24.929Z,-0.60
2023-03-11T21:14:51.588Z,-0.70
2023-03-11T21:17:18.664Z,-0.70
2023-03-11T21:19:45.784Z,-0.80
2023-03-11T21:22:12.506Z,-0.80
2023-03-11T21:24:39.387Z,-0.80
2023-03-11T21:27:06.050Z,-0.80
2023-03-11T21:29:32.808Z,-0.80
2023-03-11T21:31:59.675Z,-0.80
2023-03-11T21:34:26.623Z,-0.90
2023-03-11T21:36:53.245Z,-0.90
2023-03-11T21:39:21.694Z,-0.80
2023-03-11T21:41:48.480Z,-0.90
2023-03-11T21:44:15.356Z,-1.00
2023-03-11T21:46:42.143Z,-1.00
2023-03-11T21:49:09.165Z,-1.00
2023-03-11T21:51:35.791Z,-1.00
2023-03-11T21:54:03.604Z,-1.00
2023-03-11T21:56:30.433Z,-1.00
2023-03-11T21:58:57.594Z,-1.10
2023-03-11T22:01:24.307Z,-1.10
2023-03-11T22:03:51.046Z,-1.00
2023-03-11T22:06:17.741Z,-1.10
2023-03-11T22:08:44.555Z,-1.10
2023-03-11T22:11:13.873Z,-1.10
2023-03-11T22:13:40.652Z,-1.20
2023-03-11T22:16:08.088Z,-1.20
2023-03-11T22:18:35.350Z,-1.30
2023-03-11T22:21:02.161Z,-1.30
2023-03-11T22:23:28.812Z,-1.30
2023-03-11T22:25:55.510Z,-1.30
2023-03-11T22:28:22.277Z,-1.40
2023-03-11T22:30:49.193Z,-1.40
2023-03-11T22:33:15.828Z,-1.40
2023-03-11T22:35:49.957Z,-1.40
2023-03-11T22:38:16.631Z,-1.40
2023-03-11T22:40:43.486Z,-1.40
2023-03-11T22:43:10.125Z,-1.50
2023-03-11T22:45:37.025Z,-1.50
2023-03-11T22:48:04.084Z,-1.60
2023-03-11T22:50:31.007Z,-1.60
2023-03-11T22:52:57.668Z,-1.50
2023-03-11T22:55:24.539Z,-1.50
2023-03-11T22:57:51.471Z,-1.50
2023-03-11T23:00:21.043Z,-1.50
2023-03-11T23:02:48.745Z,-1.50
2023-03-11T23:05:15.790Z,-1.40
2023-03-11T23:07:42.528Z,-1.50
2023-03-11T23:10:10.458Z,-1.50
2023-03-11T23:12:37.414Z,-1.50
2023-03-11T23:15:06.038Z,-1.50
2023-03-11T23:17:32.925Z,-1.50
2023-03-11T23:19:59.638Z,-1.50
2023-03-11T23:22:26.543Z,-1.60
2023-03-11T23:24:53.218Z,-1.60
2023-03-11T23:27:20.075Z,-1.70
2023-03-11T23:29:47.810Z,-1.70
2023-03-11T23:32:14.499Z,-1.70
2023-03-11T23:34:41.258Z,-1.70
2023-03-11T23:37:07.903Z,-1.60
2023-03-11T23:39:34.931Z,-1.60
2023-03-11T23:42:04.927Z,-1.60
2023-03-11T23:44:35.788Z,-1.60
2023-03-11T23:47:02.417Z,-1.70
2023-03-11T23:49:29.040Z,-1.70
2023-03-11T23:51:55.649Z,-1.70
2023-03-11T23:54:22.259Z,-1.70
2023-03-11T23:56:48.894Z,-1.70
2023-03-11T23:59:15.811Z,-1.70
